createdAt,value
2023-01-05T00:00:01.462Z,3.20
2023-01-05T00:05:03.221Z,2.95
2023-01-05T00:10:25.320Z,3.55
2023-01-05T00:15:56.444Z,2.92
2023-01-05T00:21:16.959Z,3.47
2023-01-05T00:26:18.627Z,3.13
2023-01-05T00:31:20.398Z,2.88
2023-01-05T00:36:22.083Z,3.03
2023-01-05T00:41:23.735Z,3.20
2023-01-05T00:46:25.444Z,2.90
2023-01-05T00:51:27.075Z,3.22
2023-01-05T00:56:28.719Z,3.55
2023-01-05T01:01:30.498Z,3.33
2023-01-05T01:06:32.298Z,3.35
2023-01-05T01:11:34.350Z,3.08
2023-01-05T01:16:36.232Z,3.58
2023-01-05T01:21:37.886Z,3.10
2023-01-05T01:26:39.535Z,3.30
2023-01-05T01:31:41.254Z,3.47
2023-01-05T01:36:43.438Z,3.80
2023-01-05T01:41:45.108Z,2.97
2023-01-05T01:46:46.758Z,3.58
2023-01-05T01:51:48.783Z,4.00
2023-01-05T01:56:54.861Z,4.68
2023-01-05T02:01:59.781Z,3.15
2023-01-05T02:07:02.983Z,4.25
2023-01-05T02:12:22.533Z,3.70
2023-01-05T02:17:42.833Z,3.58
2023-01-05T02:23:14.918Z,4.55
2023-01-05T02:28:43.773Z,3.40
2023-01-05T02:34:13.495Z,3.67
2023-01-05T02:39:25.577Z,3.15
2023-01-05T02:44:32.731Z,3.67
2023-01-05T02:49:40.707Z,4.10
2023-01-05T02:54:47.882Z,3.17
2023-01-05T02:59:54.229Z,3.30
2023-01-05T03:05:05.149Z,3.53
2023-01-05T03:10:26.279Z,3.40
2023-01-05T03:15:31.791Z,3.67
2023-01-05T03:20:34.689Z,3.55
2023-01-05T03:25:57.521Z,3.83
2023-01-05T03:31:25.586Z,4.15
2023-01-05T03:36:29.640Z,3.97
2023-01-05T03:41:32.146Z,3.50
2023-01-05T03:46:34.306Z,3.72
2023-01-05T03:51:41.472Z,3.53
2023-01-05T03:56:43.990Z,3.75
2023-01-05T04:01:45.860Z,3.63
2023-01-05T04:06:47.613Z,3.42
2023-01-05T04:11:49.301Z,3.65
2023-01-05T04:16:50.942Z,3.55
2023-01-05T04:21:52.541Z,4.55
2023-01-05T04:26:54.233Z,4.03
2023-01-05T04:31:55.916Z,3.38
2023-01-05T04:36:57.587Z,4.35
2023-01-05T04:41:59.222Z,3.70
2023-01-05T04:47:00.839Z,3.78
2023-01-05T04:52:02.555Z,3.50
2023-01-05T04:57:04.305Z,3.90
2023-01-05T05:02:06.068Z,4.50
2023-01-05T05:07:07.824Z,4.90
2023-01-05T05:12:09.615Z,3.70
2023-01-05T05:17:11.250Z,4.25
2023-01-05T05:22:13.013Z,5.03
2023-01-05T05:27:14.657Z,4.03
2023-01-05T05:32:16.354Z,4.53
2023-01-05T05:37:18.017Z,4.63
2023-01-05T05:42:19.657Z,4.07
2023-01-05T05:47:21.289Z,4.10
2023-01-05T05:52:23.003Z,3.83
2023-01-05T05:57:24.630Z,4.05
2023-01-05T06:02:26.353Z,4.88
2023-01-05T06:07:28.030Z,3.95
2023-01-05T06:12:29.799Z,5.03
2023-01-05T06:17:31.553Z,3.97
2023-01-05T06:22:33.192Z,3.85
2023-01-05T06:27:35.006Z,3.47
2023-01-05T06:32:36.732Z,3.92
2023-01-05T06:37:38.400Z,3.92
2023-01-05T06:42:41.339Z,4.85
2023-01-05T06:47:43.962Z,5.03
2023-01-05T06:52:45.654Z,3.97
2023-01-05T06:57:47.454Z,4.88
2023-01-05T07:02:49.138Z,4.20
2023-01-05T07:07:51.064Z,4.88
2023-01-05T07:12:52.730Z,3.60
2023-01-05T07:17:54.496Z,4.60
2023-01-05T07:22:56.200Z,4.43
2023-01-05T07:27:58.289Z,4.32
2023-01-05T07:33:00.754Z,4.75
2023-01-05T07:38:02.449Z,4.07
2023-01-05T07:43:04.767Z,4.10
2023-01-05T07:48:06.633Z,4.95
2023-01-05T07:53:08.358Z,4.50
2023-01-05T07:58:10.080Z,4.63
2023-01-05T08:03:11.843Z,4.97
2023-01-05T08:08:19.083Z,4.30
2023-01-05T08:13:42.389Z,4.97
2023-01-05T08:18:44.106Z,4.72
2023-01-05T08:23:45.918Z,5.32
2023-01-05T08:28:47.744Z,5.40
2023-01-05T08:33:49.560Z,4.82
2023-01-05T08:38:55.113Z,4.75
2023-01-05T08:43:59.146Z,4.97
2023-01-05T08:49:02.900Z,5.05
2023-01-05T08:54:04.740Z,4.53
2023-01-05T08:59:06.776Z,4.68
2023-01-05T09:04:08.739Z,5.30
2023-01-05T09:09:10.487Z,5.13
2023-01-05T09:14:14.619Z,4.70
2023-01-05T09:19:16.398Z,5.45
2023-01-05T09:24:18.402Z,5.60
2023-01-05T09:29:20.120Z,5.60
2023-01-05T09:34:21.751Z,4.57
2023-01-05T09:39:23.489Z,5.35
2023-01-05T09:44:27.938Z,5.63
2023-01-05T09:49:31.021Z,5.60
2023-01-05T09:54:34.616Z,5.40
2023-01-05T09:59:43.616Z,5.63
2023-01-05T10:04:47.294Z,5.47
2023-01-05T10:09:49.571Z,6.25
2023-01-05T10:15:01.877Z,5.15
2023-01-05T10:20:06.807Z,5.88
2023-01-05T10:25:25.341Z,6.65
2023-01-05T10:30:45.975Z,4.90
2023-01-05T10:36:48.895Z,5.22
2023-01-05T10:42:00.272Z,4.72
2023-01-05T10:47:02.373Z,5.57
2023-01-05T10:52:06.314Z,5.18
2023-01-05T10:57:35.803Z,5.20
2023-01-05T11:02:57.873Z,4.47
2023-01-05T11:08:03.006Z,5.43
2023-01-05T11:13:22.601Z,4.82
2023-01-05T11:18:48.377Z,4.53
2023-01-05T11:23:54.674Z,5.25
2023-01-05T11:29:08.216Z,5.85
2023-01-05T11:34:34.429Z,6.07
2023-01-05T11:39:36.167Z,4.30
2023-01-05T11:44:39.353Z,4.35
2023-01-05T11:49:41.113Z,4.03
2023-01-05T11:54:44.435Z,4.53
2023-01-05T11:59:47.003Z,4.53
2023-01-05T12:05:11.044Z,4.80
2023-01-05T12:10:12.856Z,5.13
2023-01-05T12:15:53.464Z,4.53
2023-01-05T12:21:16.169Z,4.40
2023-01-05T12:26:28.290Z,3.92
2023-01-05T12:37:28.871Z,3.90
2023-01-05T12:42:51.771Z,4.30
2023-01-05T12:48:05.131Z,4.60
2023-01-05T12:53:22.051Z,3.90
2023-01-05T12:58:33.052Z,3.63
2023-01-05T13:03:44.602Z,4.10
2023-01-05T13:08:58.900Z,4.10
2023-01-05T13:14:05.588Z,4.32
2023-01-05T13:19:20.649Z,3.75
2023-01-05T13:24:39.593Z,4.30
2023-01-05T13:29:46.008Z,4.60
2023-01-05T13:34:53.765Z,3.92
2023-01-05T13:40:14.973Z,3.92
2023-01-05T13:45:33.117Z,4.15
2023-01-05T13:50:56.705Z,4.55
2023-01-05T13:56:02.220Z,4.60
2023-01-05T14:01:08.234Z,5.13
2023-01-05T14:06:29.817Z,4.85
2023-01-05T14:11:31.947Z,5.13
2023-01-05T14:16:37.561Z,4.72
2023-01-05T14:21:53.873Z,5.18
2023-01-05T14:27:05.761Z,5.38
2023-01-05T14:32:08.054Z,4.47
2023-01-05T14:37:23.669Z,4.93
2023-01-05T14:42:34.392Z,4.22
2023-01-05T14:48:03.402Z,4.20
2023-01-05T14:53:14.174Z,5.20
2023-01-05T14:58:35.935Z,4.88
2023-01-05T15:03:56.570Z,5.07
2023-01-05T15:09:36.242Z,5.38
2023-01-05T15:15:07.015Z,5.03
2023-01-05T15:20:14.658Z,5.25
2023-01-05T15:25:24.198Z,4.82
2023-01-05T15:30:31.847Z,4.53
2023-01-05T15:35:45.077Z,5.00
2023-01-05T15:40:48.334Z,4.72
2023-01-05T15:45:53.550Z,4.05
2023-01-05T15:50:58.488Z,5.03
2023-01-05T15:56:00.908Z,4.30
2023-01-05T16:01:12.799Z,4.95
2023-01-05T16:06:21.970Z,5.07
2023-01-05T16:11:32.064Z,4.55
2023-01-05T16:16:55.860Z,5.20
2023-01-05T16:22:08.336Z,5.70
2023-01-05T16:27:12.743Z,4.95
2023-01-05T16:32:34.391Z,4.93
2023-01-05T16:37:36.135Z,5.28
2023-01-05T16:42:48.013Z,5.38
2023-01-05T16:47:52.040Z,5.40
2023-01-05T16:53:04.400Z,5.60
2023-01-05T16:58:31.030Z,6.50
2023-01-05T17:03:32.969Z,5.75
2023-01-05T17:08:37.771Z,7.18
2023-01-05T17:13:45.209Z,6.47
2023-01-05T17:18:47.486Z,6.38
2023-01-05T17:23:52.388Z,5.65
2023-01-05T17:28:57.766Z,6.03
2023-01-05T17:33:59.523Z,5.68
2023-01-05T17:39:01.468Z,5.90
2023-01-05T17:44:03.179Z,6.28
2023-01-05T17:49:05.700Z,6.32
2023-01-05T17:54:07.378Z,6.22
2023-01-05T17:59:09.176Z,6.30
2023-01-05T18:04:10.808Z,6.50
2023-01-05T18:09:12.563Z,6.20
2023-01-05T18:14:14.282Z,6.40
2023-01-05T18:19:16.084Z,6.95
2023-01-05T18:24:17.772Z,6.10
2023-01-05T18:29:19.813Z,6.45
2023-01-05T18:34:21.748Z,6.53
2023-01-05T18:39:24.686Z,6.57
2023-01-05T18:44:26.356Z,6.55
2023-01-05T18:49:28.091Z,5.65
2023-01-05T18:54:30.136Z,5.60
2023-01-05T18:59:31.960Z,6.03
2023-01-05T19:04:33.652Z,6.38
2023-01-05T19:09:35.646Z,6.50
2023-01-05T19:14:37.636Z,7.68
2023-01-05T19:19:39.380Z,7.13
2023-01-05T19:24:41.021Z,8.15
2023-01-05T19:29:42.824Z,6.20
2023-01-05T19:34:44.598Z,5.78
2023-01-05T19:39:46.290Z,6.75
2023-01-05T19:44:47.984Z,5.88
2023-01-05T19:49:49.861Z,7.82
2023-01-05T19:54:51.736Z,8.50
2023-01-05T19:59:53.521Z,8.40
2023-01-05T20:04:55.260Z,7.13
2023-01-05T20:09:58.113Z,7.55
2023-01-05T20:14:59.847Z,8.38
2023-01-05T20:20:01.974Z,7.20
2023-01-05T20:25:05.137Z,7.03
2023-01-05T20:30:07.444Z,7.32
2023-01-05T20:35:11.938Z,8.07
2023-01-05T20:40:13.698Z,7.15
2023-01-05T20:45:16.067Z,7.38
2023-01-05T20:50:17.989Z,6.47
2023-01-05T20:55:19.609Z,6.80
2023-01-05T21:00:21.376Z,6.47
2023-01-05T21:05:23.048Z,7.03
2023-01-05T21:10:24.783Z,5.25
2023-01-05T21:15:27.629Z,6.05
2023-01-05T21:20:29.312Z,5.78
2023-01-05T21:25:31.228Z,6.90
2023-01-05T21:30:53.020Z,8.05
2023-01-05T21:35:56.061Z,5.30
2023-01-05T21:41:05.891Z,6.55
2023-01-05T21:46:10.042Z,5.97
2023-01-05T21:51:31.710Z,5.85
2023-01-05T21:56:38.334Z,5.97
2023-01-05T22:01:40.173Z,7.05
2023-01-05T22:06:41.906Z,4.70
2023-01-05T22:11:43.736Z,4.03
2023-01-05T22:16:45.419Z,4.43
2023-01-05T22:21:47.092Z,6.30
2023-01-05T22:26:48.806Z,6.82
2023-01-05T22:31:50.988Z,5.85
2023-01-05T22:36:53.402Z,5.15
2023-01-05T22:41:55.273Z,5.68
2023-01-05T22:46:57.164Z,7.97
2023-01-05T22:51:58.816Z,5.60
2023-01-05T22:57:00.461Z,6.38
2023-01-05T23:02:02.161Z,5.57
2023-01-05T23:07:04.375Z,5.32
2023-01-05T23:12:06.140Z,5.38
2023-01-05T23:17:12.137Z,5.78
2023-01-05T23:22:13.803Z,5.70
2023-01-05T23:27:15.471Z,6.38
2023-01-05T23:32:17.356Z,7.28
2023-01-05T23:37:19.041Z,7.43
2023-01-05T23:42:39.421Z,6.15
2023-01-05T23:47:41.137Z,5.90
2023-01-05T23:52:43.189Z,6.40
2023-01-05T23:57:44.864Z,6.68
